createdAt,value
2023-02-12T00:01:11.055Z,13.30
2023-02-12T00:03:38.262Z,16.55
2023-02-12T00:06:05.721Z,16.33
2023-02-12T00:08:32.530Z,15.68
2023-02-12T00:10:59.348Z,17.83
2023-02-12T00:13:26.134Z,14.88
2023-02-12T00:15:53.084Z,16.85
2023-02-12T00:18:20.046Z,13.98
2023-02-12T00:20:46.796Z,14.70
2023-02-12T00:23:13.718Z,14.77
2023-02-12T00:25:44.273Z,14.52
2023-02-12T00:28:11.139Z,17.90
2023-02-12T00:30:38.050Z,15.88
2023-02-12T00:33:04.854Z,15.93
2023-02-12T00:35:31.655Z,20.60
2023-02-12T00:37:58.730Z,19.15
2023-02-12T00:40:25.592Z,19.30
2023-02-12T00:42:52.424Z,16.58
2023-02-12T00:45:19.221Z,17.40
2023-02-12T00:47:45.984Z,15.38
2023-02-12T00:50:15.486Z,19.80
2023-02-12T00:52:42.295Z,15.60
2023-02-12T00:55:09.377Z,17.05
2023-02-12T00:57:36.287Z,15.60
2023-02-12T01:00:03.877Z,17.80
2023-02-12T01:02:30.625Z,18.63
2023-02-12T01:04:58.496Z,19.00
2023-02-12T01:07:25.515Z,19.75
2023-02-12T01:09:52.356Z,18.00
2023-02-12T01:12:19.190Z,16.45
2023-02-12T01:14:46.796Z,19.58
2023-02-12T01:17:13.624Z,17.83
2023-02-12T01:19:42.664Z,18.98
2023-02-12T01:22:09.460Z,20.35
2023-02-12T01:24:36.259Z,22.42
2023-02-12T01:27:03.142Z,19.02
2023-02-12T01:29:29.989Z,19.92
2023-02-12T01:31:56.831Z,18.00
2023-02-12T01:34:23.861Z,19.02
2023-02-12T01:36:50.732Z,18.92
2023-02-12T01:39:17.514Z,22.67
2023-02-12T01:41:44.876Z,18.90
2023-02-12T01:44:13.576Z,18.38
2023-02-12T01:46:40.560Z,15.95
2023-02-12T01:49:34.991Z,15.30
2023-02-12T01:52:24.959Z,16.27
2023-02-12T01:54:51.783Z,14.27
2023-02-12T01:57:18.646Z,15.77
2023-02-12T01:59:45.882Z,12.98
2023-02-12T02:02:12.724Z,14.65
2023-02-12T02:04:48.360Z,14.80
2023-02-12T02:07:15.113Z,13.88
2023-02-12T02:09:41.955Z,15.50
2023-02-12T02:12:27.244Z,14.45
2023-02-12T02:14:59.121Z,13.98
2023-02-12T02:17:38.751Z,14.32
2023-02-12T02:20:39.491Z,14.88
2023-02-12T02:23:10.973Z,14.75
2023-02-12T02:26:11.855Z,14.38
2023-02-12T02:29:06.755Z,14.45
2023-02-12T02:31:43.195Z,13.60
2023-02-12T02:34:37.889Z,12.45
2023-02-12T02:37:23.935Z,11.95
2023-02-12T02:40:09.550Z,9.77
2023-02-12T02:42:50.520Z,8.45
2023-02-12T02:45:52.297Z,10.63
2023-02-12T02:48:27.267Z,11.48
2023-02-12T02:50:57.525Z,9.85
2023-02-12T02:53:30.573Z,10.07
2023-02-12T02:55:58.778Z,10.25
2023-02-12T02:58:35.986Z,11.52
2023-02-12T03:01:18.034Z,13.13
2023-02-12T03:03:51.215Z,12.52
2023-02-12T03:06:40.903Z,11.77
2023-02-12T03:09:21.764Z,12.23
2023-02-12T03:11:50.847Z,10.43
2023-02-12T03:14:22.514Z,9.98
2023-02-12T03:17:20.864Z,10.93
2023-02-12T03:19:51.359Z,11.20
2023-02-12T03:22:23.258Z,12.35
2023-02-12T03:25:05.590Z,11.85
2023-02-12T03:27:33.002Z,11.93
2023-02-12T03:30:00.245Z,11.27
2023-02-12T03:33:13.552Z,11.85
2023-02-12T03:35:57.038Z,11.48
2023-02-12T03:38:47.753Z,12.95
2023-02-12T03:41:15.578Z,11.32
2023-02-12T03:43:50.326Z,10.65
2023-02-12T03:46:32.055Z,11.20
2023-02-12T03:49:15.710Z,12.45
2023-02-12T03:51:43.454Z,12.10
2023-02-12T03:54:10.974Z,10.57
2023-02-12T03:56:43.302Z,12.23
2023-02-12T03:59:10.141Z,12.00
2023-02-12T04:01:37.126Z,10.95
2023-02-12T04:04:05.562Z,11.32
2023-02-12T04:06:32.339Z,12.45
2023-02-12T04:09:01.769Z,9.60
2023-02-12T04:11:49.051Z,11.82
2023-02-12T04:14:27.527Z,10.77
2023-02-12T04:17:10.287Z,12.60
2023-02-12T04:19:56.265Z,12.43
2023-02-12T04:22:38.158Z,11.63
2023-02-12T04:25:23.790Z,11.85
2023-02-12T04:28:07.322Z,11.07
2023-02-12T04:30:37.461Z,12.05
2023-02-12T04:33:05.257Z,11.05
2023-02-12T04:35:43.530Z,11.52
2023-02-12T04:38:13.572Z,12.48
2023-02-12T04:40:40.547Z,11.95
2023-02-12T04:43:07.406Z,15.63
2023-02-12T04:45:34.939Z,11.18
2023-02-12T04:48:02.268Z,12.70
2023-02-12T04:50:38.956Z,13.50
2023-02-12T04:53:05.860Z,10.80
2023-02-12T04:55:32.621Z,12.07
2023-02-12T04:57:59.372Z,14.95
2023-02-12T05:00:26.259Z,14.57
2023-02-12T05:02:52.982Z,13.05
2023-02-12T05:05:19.814Z,13.90
2023-02-12T05:07:46.689Z,12.13
2023-02-12T05:10:13.624Z,11.93
2023-02-12T05:12:40.583Z,12.38
2023-02-12T05:15:07.699Z,12.73
2023-02-12T05:17:34.537Z,13.90
2023-02-12T05:20:01.342Z,14.65
2023-02-12T05:22:28.204Z,13.52
2023-02-12T05:24:54.965Z,13.02
2023-02-12T05:27:21.780Z,14.60
2023-02-12T05:29:48.562Z,14.95
2023-02-12T05:32:15.391Z,15.25
2023-02-12T05:34:42.253Z,14.00
2023-02-12T05:37:09.026Z,12.63
2023-02-12T05:39:35.745Z,13.50
2023-02-12T05:42:02.549Z,10.52
2023-02-12T05:44:29.432Z,14.35
2023-02-12T05:46:56.224Z,11.90
2023-02-12T05:49:22.986Z,9.90
2023-02-12T05:51:50.016Z,14.25
2023-02-12T05:54:16.757Z,11.32
2023-02-12T05:56:45.315Z,13.38
2023-02-12T05:59:22.280Z,11.95
2023-02-12T06:01:50.243Z,12.15
2023-02-12T06:04:23.677Z,12.43
2023-02-12T06:09:17.692Z,10.20
2023-02-12T06:11:44.660Z,11.93
2023-02-12T06:14:13.751Z,13.50
2023-02-12T06:16:40.651Z,12.32
2023-02-12T06:19:07.669Z,10.43
2023-02-12T06:21:34.585Z,12.15
2023-02-12T06:24:01.419Z,11.43
2023-02-12T06:26:28.586Z,15.75
2023-02-12T06:28:55.375Z,8.93
2023-02-12T06:31:30.559Z,10.68
2023-02-12T06:33:59.117Z,10.23
2023-02-12T06:36:25.865Z,13.82
2023-02-12T06:38:52.747Z,10.23
2023-02-12T06:41:20.177Z,11.82
2023-02-12T06:43:47.010Z,10.18
2023-02-12T06:46:13.897Z,10.85
2023-02-12T06:48:40.984Z,11.00
2023-02-12T06:51:09.702Z,10.10
2023-02-12T06:53:36.562Z,9.38
2023-02-12T06:56:04.785Z,10.93
2023-02-12T06:58:31.591Z,9.98
2023-02-12T07:01:07.695Z,8.60
2023-02-12T07:03:34.638Z,9.68
2023-02-12T07:06:03.415Z,9.65
2023-02-12T07:08:30.156Z,10.48
2023-02-12T07:10:56.911Z,9.88
2023-02-12T07:13:23.669Z,9.32
2023-02-12T07:15:50.531Z,8.85
2023-02-12T07:18:17.388Z,8.18
2023-02-12T07:20:44.128Z,8.98
2023-02-12T07:23:13.919Z,7.68
2023-02-12T07:25:40.738Z,8.77
2023-02-12T07:28:07.486Z,10.82
2023-02-12T07:30:34.401Z,9.32
2023-02-12T07:33:01.228Z,8.15
2023-02-12T07:35:27.979Z,8.38
2023-02-12T07:37:54.817Z,9.00
2023-02-12T07:40:21.645Z,7.68
2023-02-12T07:42:53.528Z,5.90
2023-02-12T07:45:20.293Z,5.75
2023-02-12T07:47:47.034Z,6.25
2023-02-12T07:50:13.969Z,5.80
2023-02-12T07:52:40.733Z,4.97
2023-02-12T07:55:08.022Z,8.23
2023-02-12T07:57:35.438Z,7.20
2023-02-12T08:00:02.475Z,5.15
2023-02-12T08:02:39.044Z,6.65
2023-02-12T08:05:06.353Z,6.93
2023-02-12T08:07:33.118Z,4.45
2023-02-12T08:09:59.914Z,4.90
2023-02-12T08:12:26.739Z,5.88
2023-02-12T08:14:54.386Z,5.57
2023-02-12T08:17:21.191Z,4.72
2023-02-12T08:19:47.943Z,6.47
2023-02-12T08:22:14.745Z,5.47
2023-02-12T08:24:42.605Z,5.30
2023-02-12T08:27:09.393Z,4.15
2023-02-12T08:29:36.420Z,4.68
2023-02-12T08:32:03.621Z,5.47
2023-02-12T08:34:32.291Z,5.15
2023-02-12T08:36:59.145Z,9.05
2023-02-12T08:39:27.589Z,5.60
2023-02-12T08:41:55.585Z,4.10
2023-02-12T08:44:22.440Z,7.35
2023-02-12T08:46:50.591Z,5.72
2023-02-12T08:49:19.260Z,7.45
2023-02-12T08:51:48.757Z,6.88
2023-02-12T08:54:23.951Z,7.90
2023-02-12T08:56:51.199Z,8.95
2023-02-12T08:59:18.418Z,4.45
2023-02-12T09:01:45.236Z,5.57
2023-02-12T09:04:21.544Z,4.63
2023-02-12T09:06:48.485Z,4.93
2023-02-12T09:09:15.531Z,5.00
2023-02-12T09:11:42.350Z,4.20
2023-02-12T09:14:11.659Z,7.63
2023-02-12T09:16:40.246Z,6.00
2023-02-12T09:19:07.743Z,5.15
2023-02-12T09:21:34.693Z,4.47
2023-02-12T09:24:02.628Z,4.53
2023-02-12T09:26:29.567Z,6.43
2023-02-12T09:28:56.387Z,4.18
2023-02-12T09:31:26.574Z,4.60
2023-02-12T09:33:55.334Z,5.15
2023-02-12T09:36:22.383Z,4.82
2023-02-12T09:38:49.633Z,4.97
2023-02-12T09:41:43.194Z,6.47
2023-02-12T09:44:31.716Z,6.47
2023-02-12T09:47:15.818Z,5.75
2023-02-12T09:50:02.023Z,4.00
2023-02-12T09:52:29.203Z,5.30
2023-02-12T09:54:56.208Z,12.65
2023-02-12T09:57:31.394Z,4.25
2023-02-12T10:00:16.827Z,4.43
2023-02-12T10:02:43.732Z,2.55
2023-02-12T10:05:24.819Z,2.90
2023-02-12T10:07:57.600Z,3.88
2023-02-12T10:10:48.479Z,3.50
2023-02-12T10:13:42.814Z,3.70
2023-02-12T10:16:30.947Z,3.85
2023-02-12T10:19:00.790Z,3.45
2023-02-12T10:21:33.968Z,4.47
2023-02-12T10:24:35.114Z,2.92
2023-02-12T10:27:12.049Z,2.17
2023-02-12T10:29:39.529Z,1.52
2023-02-12T10:32:11.594Z,3.05
2023-02-12T10:34:38.389Z,1.98
2023-02-12T10:37:28.499Z,3.15
2023-02-12T10:39:58.261Z,5.43
2023-02-12T10:42:34.773Z,3.25
2023-02-12T10:45:01.598Z,5.32
2023-02-12T10:47:28.392Z,1.00
2023-02-12T10:49:59.748Z,2.45
2023-02-12T10:52:29.492Z,3.30
2023-02-12T10:54:56.459Z,1.48
2023-02-12T10:57:25.053Z,1.45
2023-02-12T10:59:54.016Z,9.20
2023-02-12T11:02:29.509Z,1.67
2023-02-12T11:04:56.886Z,7.25
2023-02-12T11:07:24.016Z,2.05
2023-02-12T11:09:51.891Z,0.60
2023-02-12T11:12:47.943Z,0.80
2023-02-12T11:15:16.686Z,0.82
2023-02-12T11:17:45.584Z,1.15
2023-02-12T11:20:18.568Z,0.80
2023-02-12T11:22:55.665Z,2.05
2023-02-12T11:25:23.114Z,0.98
2023-02-12T11:28:05.292Z,2.72
2023-02-12T11:30:32.467Z,0.60
2023-02-12T11:33:23.492Z,1.48
2023-02-12T11:35:58.300Z,2.78
2023-02-12T11:38:28.050Z,1.65
2023-02-12T11:40:58.475Z,0.95
2023-02-12T11:43:25.505Z,1.70
2023-02-12T11:45:53.041Z,1.80
2023-02-12T11:48:34.605Z,1.02
2023-02-12T11:51:03.830Z,0.95
2023-02-12T11:53:32.781Z,1.02
2023-02-12T11:56:10.638Z,1.27
2023-02-12T11:58:37.548Z,2.22
2023-02-12T12:01:37.110Z,1.20
2023-02-12T12:04:06.679Z,0.98
2023-02-12T12:06:38.745Z,1.05
2023-02-12T12:09:13.032Z,0.50
2023-02-12T12:12:10.325Z,1.13
2023-02-12T12:15:02.767Z,5.03
2023-02-12T12:18:00.342Z,2.10
2023-02-12T12:20:29.702Z,1.85
2023-02-12T12:23:08.553Z,1.80
2023-02-12T12:25:44.173Z,3.42
2023-02-12T12:28:28.591Z,1.27
2023-02-12T12:31:10.761Z,2.15
2023-02-12T12:33:51.722Z,2.20
2023-02-12T12:36:18.580Z,1.95
2023-02-12T12:39:18.780Z,1.38
2023-02-12T12:42:14.600Z,1.90
2023-02-12T12:45:12.349Z,0.80
2023-02-12T12:48:03.121Z,0.95
2023-02-12T12:51:01.707Z,0.98
2023-02-12T12:53:53.440Z,0.95
2023-02-12T12:56:26.032Z,1.17
2023-02-12T12:59:16.416Z,0.75
2023-02-12T13:02:22.055Z,0.90
2023-02-12T13:05:06.689Z,1.63
2023-02-12T13:07:54.626Z,1.13
2023-02-12T13:10:45.446Z,0.88
2023-02-12T13:13:33.592Z,0.95
2023-02-12T13:16:16.072Z,2.22
2023-02-12T13:18:52.039Z,0.68
2023-02-12T13:21:54.248Z,1.73
2023-02-12T13:24:24.569Z,0.95
2023-02-12T13:27:06.023Z,1.08
2023-02-12T13:29:39.166Z,2.17
2023-02-12T13:32:13.370Z,1.65
2023-02-12T13:34:40.235Z,1.95
2023-02-12T13:37:07.209Z,0.80
2023-02-12T13:39:39.485Z,1.58
2023-02-12T13:42:09.994Z,1.88
2023-02-12T13:44:40.256Z,1.83
2023-02-12T13:47:25.436Z,2.22
2023-02-12T13:49:54.303Z,3.30
2023-02-12T13:52:33.277Z,1.10
2023-02-12T13:55:21.423Z,1.40
2023-02-12T13:58:40.771Z,2.85
2023-02-12T14:01:16.403Z,1.50
2023-02-12T14:03:43.280Z,2.00
2023-02-12T14:06:15.475Z,2.42
2023-02-12T14:09:07.789Z,2.65
2023-02-12T14:11:34.512Z,1.63
2023-02-12T14:14:03.103Z,2.30
2023-02-12T14:16:29.891Z,2.85
2023-02-12T14:19:34.244Z,2.72
2023-02-12T14:22:01.402Z,1.98
2023-02-12T14:24:37.434Z,1.25
2023-02-12T14:27:26.924Z,1.38
2023-02-12T14:30:04.060Z,1.60
2023-02-12T14:32:53.731Z,0.88
2023-02-12T14:35:26.296Z,1.20
2023-02-12T14:37:54.317Z,1.83
2023-02-12T14:40:31.807Z,1.20
2023-02-12T14:42:58.593Z,2.00
2023-02-12T14:45:35.877Z,1.88
2023-02-12T14:48:04.122Z,2.38
2023-02-12T14:50:45.743Z,2.47
2023-02-12T14:53:26.903Z,3.80
2023-02-12T14:55:53.815Z,2.75
2023-02-12T14:58:22.550Z,2.03
2023-02-12T15:00:50.118Z,2.50
2023-02-12T15:03:39.022Z,3.45
2023-02-12T15:06:13.473Z,2.60
2023-02-12T15:09:02.148Z,2.53
2023-02-12T15:12:03.761Z,2.20
2023-02-12T15:14:31.914Z,4.10
2023-02-12T15:17:09.883Z,3.03
2023-02-12T15:19:57.344Z,2.35
2023-02-12T15:22:29.632Z,2.72
2023-02-12T15:25:25.819Z,3.30
2023-02-12T15:27:55.884Z,3.33
2023-02-12T15:30:26.642Z,3.95
2023-02-12T15:32:59.491Z,2.58
2023-02-12T15:35:28.126Z,5.53
2023-02-12T15:37:55.540Z,3.75
2023-02-12T15:40:22.569Z,2.97
2023-02-12T15:42:53.555Z,3.92
2023-02-12T15:45:22.868Z,3.80
2023-02-12T15:48:02.129Z,3.63
2023-02-12T15:50:29.685Z,3.35
2023-02-12T15:52:56.850Z,2.95
2023-02-12T15:55:25.758Z,3.90
2023-02-12T15:57:54.146Z,2.28
2023-02-12T16:00:43.901Z,2.97
2023-02-12T16:03:25.873Z,3.22
2023-02-12T16:05:53.128Z,4.03
2023-02-12T16:08:21.606Z,2.72
2023-02-12T16:10:49.420Z,1.77
2023-02-12T16:13:32.911Z,2.22
2023-02-12T16:16:11.959Z,3.22
2023-02-12T16:18:39.505Z,3.28
2023-02-12T16:21:06.946Z,3.47
2023-02-12T16:23:34.714Z,3.20
2023-02-12T16:26:01.542Z,3.90
2023-02-12T16:28:29.062Z,3.97
2023-02-12T16:31:09.209Z,2.40
2023-02-12T16:33:45.480Z,2.88
2023-02-12T16:36:28.387Z,3.60
2023-02-12T16:39:02.610Z,4.13
2023-02-12T16:41:33.508Z,2.72
2023-02-12T16:44:00.301Z,4.07
2023-02-12T16:46:49.627Z,2.08
2023-02-12T16:49:17.675Z,3.42
2023-02-12T16:51:44.730Z,2.65
2023-02-12T16:54:31.290Z,3.45
2023-02-12T16:56:59.694Z,3.45
2023-02-12T16:59:26.715Z,3.92
2023-02-12T17:01:57.402Z,4.80
2023-02-12T17:04:24.317Z,2.75
2023-02-12T17:06:51.124Z,3.63
2023-02-12T17:09:17.880Z,3.78
2023-02-12T17:11:46.125Z,3.92
2023-02-12T17:14:18.986Z,4.40
2023-02-12T17:16:45.960Z,4.55
2023-02-12T17:19:12.802Z,4.13
2023-02-12T17:21:41.980Z,5.85
2023-02-12T17:24:26.295Z,7.40
2023-02-12T17:26:53.578Z,5.50
2023-02-12T17:29:21.746Z,6.45
2023-02-12T17:31:49.107Z,6.82
2023-02-12T17:34:16.524Z,5.70
2023-02-12T17:36:43.271Z,7.28
2023-02-12T17:39:11.822Z,7.85
2023-02-12T17:41:38.699Z,7.65
2023-02-12T17:44:05.604Z,9.20
2023-02-12T17:46:32.590Z,5.20
2023-02-12T17:48:59.448Z,6.38
2023-02-12T17:51:26.264Z,6.07
2023-02-12T17:53:53.130Z,5.53
2023-02-12T17:56:21.295Z,5.25
2023-02-12T17:58:48.437Z,3.83
2023-02-12T18:01:19.613Z,4.80
2023-02-12T18:03:46.512Z,5.30
2023-02-12T18:06:16.306Z,8.93
2023-02-12T18:08:44.298Z,5.15
2023-02-12T18:11:11.503Z,5.45
2023-02-12T18:13:38.485Z,4.57
2023-02-12T18:16:09.095Z,4.03
2023-02-12T18:18:36.394Z,4.50
2023-02-12T18:21:07.719Z,5.38
2023-02-12T18:23:34.602Z,4.25
2023-02-12T18:26:04.420Z,3.25
2023-02-12T18:28:31.238Z,3.53
2023-02-12T18:30:58.978Z,3.80
2023-02-12T18:33:26.066Z,3.13
2023-02-12T18:36:06.957Z,3.25
2023-02-12T18:38:34.842Z,2.83
2023-02-12T18:41:06.446Z,4.80
2023-02-12T18:43:35.901Z,3.78
2023-02-12T18:46:10.374Z,3.22
2023-02-12T18:48:37.250Z,4.25
2023-02-12T18:51:04.927Z,3.88
2023-02-12T18:53:31.732Z,3.67
2023-02-12T18:55:58.646Z,4.55
2023-02-12T18:58:25.505Z,6.97
2023-02-12T19:00:52.358Z,9.88
2023-02-12T19:03:19.113Z,7.88
2023-02-12T19:05:45.946Z,7.50
2023-02-12T19:08:13.226Z,12.55
2023-02-12T19:10:40.559Z,7.45
2023-02-12T19:13:07.714Z,6.45
2023-02-12T19:15:34.702Z,6.55
2023-02-12T19:18:01.798Z,7.07
2023-02-12T19:20:28.580Z,6.25
2023-02-12T19:22:56.175Z,7.07
2023-02-12T19:25:22.935Z,4.75
2023-02-12T19:27:49.734Z,5.20
2023-02-12T19:30:16.636Z,7.30
2023-02-12T19:32:43.428Z,8.00
2023-02-12T19:35:10.239Z,6.90
2023-02-12T19:37:37.230Z,8.40
2023-02-12T19:40:04.109Z,9.30
2023-02-12T19:42:30.972Z,9.38
2023-02-12T19:44:57.847Z,10.13
2023-02-12T19:47:24.678Z,6.95
2023-02-12T19:49:51.454Z,7.15
2023-02-12T19:52:18.278Z,8.90
2023-02-12T19:54:45.385Z,8.32
2023-02-12T19:57:13.557Z,8.52
2023-02-12T19:59:41.137Z,9.88
2023-02-12T20:02:09.343Z,9.93
2023-02-12T20:04:36.889Z,8.40
2023-02-12T20:07:03.956Z,10.00
2023-02-12T20:09:30.828Z,10.75
2023-02-12T20:11:58.283Z,10.13
2023-02-12T20:14:25.291Z,9.40
2023-02-12T20:16:54.502Z,11.07
2023-02-12T20:19:28.867Z,13.10
2023-02-12T20:21:57.413Z,15.07
2023-02-12T20:24:28.551Z,9.95
2023-02-12T20:26:55.601Z,12.05
2023-02-12T20:29:22.946Z,9.98
2023-02-12T20:31:50.015Z,12.35
2023-02-12T20:34:18.019Z,10.05
2023-02-12T20:36:48.146Z,15.98
2023-02-12T20:39:17.002Z,11.43
2023-02-12T20:41:44.385Z,11.35
2023-02-12T20:44:13.908Z,9.20
2023-02-12T20:46:42.206Z,12.48
2023-02-12T20:49:10.128Z,10.95
2023-02-12T20:51:36.904Z,11.07
2023-02-12T20:54:03.862Z,11.00
2023-02-12T20:56:32.406Z,11.30
2023-02-12T20:58:59.828Z,11.75
2023-02-12T21:01:32.894Z,11.07
2023-02-12T21:04:02.758Z,10.23
2023-02-12T21:06:29.620Z,11.18
2023-02-12T21:08:56.777Z,12.15
2023-02-12T21:11:24.551Z,11.23
2023-02-12T21:14:02.184Z,12.05
2023-02-12T21:16:30.890Z,12.57
2023-02-12T21:18:57.890Z,12.13
2023-02-12T21:21:35.891Z,14.18
2023-02-12T21:24:06.285Z,11.32
2023-02-12T21:26:33.465Z,14.80
2023-02-12T21:29:01.462Z,13.50
2023-02-12T21:31:32.855Z,14.38
2023-02-12T21:34:00.452Z,15.98
2023-02-12T21:36:38.077Z,11.85
2023-02-12T21:39:06.553Z,10.57
2023-02-12T21:41:35.655Z,12.77
2023-02-12T21:44:04.677Z,15.52
2023-02-12T21:46:31.495Z,14.00
2023-02-12T21:48:58.411Z,11.45
2023-02-12T21:51:27.462Z,13.82
2023-02-12T21:53:55.876Z,13.70
2023-02-12T21:56:22.994Z,16.23
2023-02-12T21:58:51.317Z,14.27
2023-02-12T22:01:20.328Z,13.68
2023-02-12T22:03:47.183Z,15.45
2023-02-12T22:06:14.644Z,16.23
2023-02-12T22:08:41.363Z,15.13
2023-02-12T22:11:10.829Z,16.73
2023-02-12T22:13:37.815Z,15.30
2023-02-12T22:16:12.180Z,15.55
2023-02-12T22:18:39.366Z,14.50
2023-02-12T22:21:06.946Z,16.40
2023-02-12T22:23:34.285Z,17.60
2023-02-12T22:26:12.257Z,21.67
2023-02-12T22:29:09.240Z,22.92
2023-02-12T22:31:37.275Z,20.45
2023-02-12T22:34:06.397Z,20.67
2023-02-12T22:36:34.990Z,24.20
2023-02-12T22:39:02.056Z,22.00
2023-02-12T22:41:29.111Z,23.95
2023-02-12T22:43:58.346Z,26.30
2023-02-12T22:46:25.205Z,24.40
2023-02-12T22:48:51.929Z,27.30
2023-02-12T22:51:19.529Z,31.73
2023-02-12T22:53:46.470Z,31.23
2023-02-12T22:56:13.369Z,26.50
2023-02-12T22:58:40.313Z,30.55
2023-02-12T23:01:15.521Z,27.58
2023-02-12T23:03:42.488Z,27.30
2023-02-12T23:06:11.745Z,26.92
2023-02-12T23:08:38.585Z,23.63
2023-02-12T23:11:07.846Z,28.85
2023-02-12T23:13:35.783Z,24.77
2023-02-12T23:16:02.776Z,23.48
2023-02-12T23:18:29.584Z,24.02
2023-02-12T23:20:56.665Z,27.33
2023-02-12T23:23:23.743Z,25.45
2023-02-12T23:25:50.673Z,27.23
2023-02-12T23:28:17.554Z,29.95
2023-02-12T23:30:44.531Z,29.90
2023-02-12T23:33:11.479Z,27.88
2023-02-12T23:35:38.275Z,29.63
2023-02-12T23:38:05.252Z,27.38
2023-02-12T23:40:32.945Z,27.48
2023-02-12T23:43:00.114Z,26.52
2023-02-12T23:45:27.577Z,28.02
2023-02-12T23:47:54.509Z,25.85
2023-02-12T23:50:21.325Z,29.63
2023-02-12T23:52:48.110Z,24.75
2023-02-12T23:55:15.057Z,27.88
2023-02-12T23:57:41.937Z,29.30
